Time;durP1;ratioP1;P1;durP2;ratioP2;P2;SDS_P1;SDS_P2;PMS_P1;PMS_P2;Temp;Humidity;BMP_temperature;BMP_pressure;BME280_temperature;BME280_humidity;BME280_pressure;Samples;Min_cycle;Max_cycle;Signal;HPM_P1;HPM_P2
2023/06/12 00:01:25;;;;;;;0.47;0.38;;;20.50;1.00;;;;;;4823640;29;20061;-81
2023/06/12 00:03:51;;;;;;;0.68;0.68;;;20.50;1.00;;;;;;4794877;29;20139;-81
2023/06/12 00:06:17;;;;;;;0.43;0.43;;;20.40;1.00;;;;;;4826257;29;20054;-82
2023/06/12 00:08:43;;;;;;;0.20;0.20;;;20.40;1.00;;;;;;4795417;29;20137;-81
2023/06/12 00:11:12;;;;;;;0.40;0.40;;;20.30;1.00;;;;;;4810063;29;20058;-81
2023/06/12 00:13:42;;;;;;;0.40;0.30;;;20.30;1.00;;;;;;4810159;29;20061;-82
2023/06/12 00:16:09;;;;;;;0.65;0.65;;;20.20;4.30;;;;;;4796043;29;20062;-82
2023/06/12 00:18:35;;;;;;;0.28;0.28;;;20.20;6.70;;;;;;4792186;29;20490;-81
2023/06/12 00:21:02;;;;;;;;;;;20.20;10.30;;;;;;4791548;29;20112;-82
2023/06/12 00:23:27;;;;;;;0.28;0.28;;;20.10;30.50;;;;;;4821744;29;19932;-83
2023/06/12 00:25:53;;;;;;;0.90;0.63;;;20.10;14.40;;;;;;4791417;29;20051;-83
2023/06/12 00:28:19;;;;;;;0.77;0.30;;;20.00;16.00;;;;;;4783657;29;20050;-82
2023/06/12 00:30:44;;;;;;;0.38;0.38;;;20.00;18.70;;;;;;4810099;29;20078;-83
2023/06/12 00:33:10;;;;;;;0.55;0.40;;;20.00;21.10;;;;;;4809468;29;20391;-82
2023/06/12 00:35:36;;;;;;;0.85;0.55;;;19.90;23.70;;;;;;4809970;29;20097;-83
2023/06/12 00:38:02;;;;;;;0.30;0.30;;;19.90;25.20;;;;;;4809409;29;20050;-83
2023/06/12 00:40:28;;;;;;;;;;;19.80;29.80;;;;;;4810150;29;20555;-82
2023/06/12 00:42:53;;;;;;;0.30;0.30;;;19.80;65.50;;;;;;4824390;29;19924;-82
2023/06/12 00:45:21;;;;;;;0.68;0.52;;;19.70;36.80;;;;;;4808800;29;20137;-82
2023/06/12 00:47:52;;;;;;;0.30;0.30;;;19.70;39.00;;;;;;4771644;30;20051;-82
2023/06/12 00:50:18;;;;;;;0.30;0.30;;;19.60;44.80;;;;;;4773845;30;20109;-82
2023/06/12 00:52:46;;;;;;;0.40;0.40;;;19.60;47.80;;;;;;4773698;30;20051;-82
2023/06/12 00:55:14;;;;;;;0.50;0.50;;;19.60;53.80;;;;;;4792702;29;20558;-82
2023/06/12 00:57:41;;;;;;;3.03;0.50;;;19.60;59.20;;;;;;4765585;30;20447;-82
2023/06/12 01:00:12;;;;;;;0.20;0.20;;;19.60;62.50;;;;;;4769624;30;20138;-82
2023/06/12 01:02:42;;;;;;;0.47;0.30;;;19.50;71.60;;;;;;4773626;30;20051;-82
2023/06/12 01:05:13;;;;;;;0.40;0.30;;;19.50;90.30;;;;;;4746520;30;20059;-82
2023/06/12 01:08:10;;;;;;;0.50;0.50;;;19.40;95.70;;;;;;4741134;30;20063;-82
2023/06/12 01:10:40;;;;;;;0.67;0.60;;;19.40;99.90;;;;;;4771410;30;20048;-82
2023/06/12 01:13:11;;;;;;;0.35;0.35;;;19.30;95.70;;;;;;4755059;30;20119;-82
2023/06/12 01:15:37;;;;;;;0.35;0.32;;;19.30;99.90;;;;;;4755873;30;20123;-82
2023/06/12 01:18:06;;;;;;;0.10;0.10;;;19.20;99.90;;;;;;4757113;29;20057;-83
2023/06/12 01:20:33;;;;;;;0.35;0.35;;;19.20;99.90;;;;;;4776270;29;20090;-82
2023/06/12 01:23:20;;;;;;;0.20;0.20;;;19.10;99.90;;;;;;4789005;29;20450;-83
2023/06/12 01:26:01;;;;;;;1.17;0.32;;;19.00;99.90;;;;;;4776059;29;20043;-82
2023/06/12 01:28:58;;;;;;;0.60;0.40;;;19.00;99.90;;;;;;4791174;29;20390;-82
2023/06/12 01:31:43;;;;;;;0.52;0.32;;;18.90;99.90;;;;;;4787353;29;20050;-82
2023/06/12 01:34:20;;;;;;;0.30;0.30;;;18.90;99.90;;;;;;4806545;29;20046;-82
2023/06/12 01:36:49;;;;;;;;;;;18.90;99.90;;;;;;4777740;29;20062;-80
2023/06/12 01:39:16;;;;;;;0.30;0.30;;;18.80;99.90;;;;;;4791506;29;20584;-81
2023/06/12 01:41:43;;;;;;;0.35;0.28;;;18.80;99.90;;;;;;4790798;29;20051;-82
2023/06/12 01:44:10;;;;;;;0.20;0.20;;;18.70;99.90;;;;;;4790473;29;20055;-82
2023/06/12 01:46:36;;;;;;;0.30;0.30;;;18.70;99.90;;;;;;4786968;29;20047;-82
2023/06/12 01:49:04;;;;;;;;;;;18.60;99.90;;;;;;4771756;30;20515;-82
2023/06/12 01:51:30;;;;;;;0.20;0.20;;;18.60;99.90;;;;;;4769876;29;19937;-82
2023/06/12 01:53:56;;;;;;;0.55;0.50;;;18.60;99.90;;;;;;4790655;29;20054;-82
2023/06/12 01:56:24;;;;;;;0.40;0.40;;;18.60;99.90;;;;;;4813544;29;20509;-82
2023/06/12 01:58:50;;;;;;;0.68;0.30;;;18.60;99.90;;;;;;4804606;29;20069;-82
2023/06/12 02:01:16;;;;;;;0.35;0.35;;;18.60;99.90;;;;;;4773975;29;20125;-82
2023/06/12 02:03:45;;;;;;;0.30;0.30;;;18.60;99.90;;;;;;4775423;29;20386;-82
2023/06/12 02:06:16;;;;;;;0.50;0.30;;;18.50;99.90;;;;;;4789976;29;20116;-82
2023/06/12 02:08:42;;;;;;;0.30;0.30;;;18.50;99.90;;;;;;4808646;29;20120;-82
2023/06/12 02:11:08;;;;;;;0.20;0.20;;;18.40;99.90;;;;;;4808137;29;20054;-82
2023/06/12 02:13:33;;;;;;;0.20;0.20;;;18.30;99.90;;;;;;4808434;29;20104;-82
2023/06/12 02:16:03;;;;;;;0.30;0.30;;;18.30;99.90;;;;;;4793334;29;20137;-82
2023/06/12 02:18:30;;;;;;;0.30;0.30;;;17.80;99.90;;;;;;4813108;29;20085;-82
2023/06/12 02:20:56;;;;;;;0.40;0.30;;;18.20;99.90;;;;;;4800995;29;20059;-82
2023/06/12 02:23:21;;;;;;;0.30;0.30;;;18.20;99.90;;;;;;4807710;29;20065;-82
2023/06/12 02:25:47;;;;;;;0.30;0.30;;;18.20;99.90;;;;;;4813407;29;20047;-82
2023/06/12 02:28:13;;;;;;;0.50;0.40;;;18.20;99.90;;;;;;4787390;29;20101;-82
2023/06/12 02:30:39;;;;;;;0.30;0.30;;;18.10;99.90;;;;;;4788143;29;20133;-82
2023/06/12 02:33:09;;;;;;;0.60;0.60;;;18.00;99.90;;;;;;4765595;29;20093;-82
2023/06/12 02:35:42;;;;;;;0.30;0.30;;;18.10;99.90;;;;;;4773131;29;20043;-82
2023/06/12 02:38:07;;;;;;;0.20;0.20;;;18.00;99.90;;;;;;4787308;29;20054;-82
2023/06/12 02:40:33;;;;;;;0.22;0.22;;;18.00;99.90;;;;;;4788185;29;20053;-82
2023/06/12 02:42:59;;;;;;;0.40;0.40;;;18.00;99.90;;;;;;4804142;29;20402;-82
2023/06/12 02:45:25;;;;;;;0.88;0.35;;;18.00;99.90;;;;;;4786930;29;20057;-82
2023/06/12 02:47:51;;;;;;;0.35;0.20;;;17.90;99.90;;;;;;4802541;29;20050;-82
2023/06/12 02:50:17;;;;;;;0.30;0.30;;;17.90;99.90;;;;;;4788520;29;20563;-82
2023/06/12 02:52:43;;;;;;;0.30;0.30;;;17.80;99.90;;;;;;4781572;29;20047;-82
2023/06/12 02:55:09;;;;;;;0.20;0.20;;;17.80;99.90;;;;;;4787496;29;20073;-82
2023/06/12 02:57:35;;;;;;;0.55;0.40;;;17.80;99.90;;;;;;4770371;30;20063;-82
2023/06/12 03:00:01;;;;;;;0.32;0.32;;;17.80;99.90;;;;;;4768988;30;20510;-82
2023/06/12 03:02:27;;;;;;;0.30;0.30;;;17.80;99.90;;;;;;4769567;30;20301;-82
2023/06/12 03:04:53;;;;;;;;;;;17.80;99.90;;;;;;4766603;30;20135;-82
2023/06/12 03:07:19;;;;;;;0.30;0.30;;;17.80;85.30;;;;;;4769494;30;19937;-82
2023/06/12 03:09:45;;;;;;;0.35;0.35;;;17.80;99.90;;;;;;4785538;30;20117;-82
2023/06/12 03:12:11;;;;;;;0.22;0.22;;;17.80;99.90;;;;;;4770539;30;20051;-82
2023/06/12 03:14:38;;;;;;;0.40;0.40;;;17.80;99.90;;;;;;4769841;30;20139;-82
2023/06/12 03:17:07;;;;;;;0.35;0.35;;;17.80;99.90;;;;;;4752105;30;20044;-82
2023/06/12 03:19:33;;;;;;;0.63;0.40;;;17.80;1.00;;;;;;4755002;29;20055;-82
2023/06/12 03:21:59;;;;;;;0.45;0.28;;;17.80;1.00;;;;;;4768816;30;20044;-82
2023/06/12 03:24:26;;;;;;;0.30;0.30;;;17.70;1.00;;;;;;4768897;30;20065;-82
2023/06/12 03:26:53;;;;;;;0.52;0.52;;;17.70;1.00;;;;;;4768540;29;20051;-82
2023/06/12 03:29:18;;;;;;;0.22;0.20;;;17.70;1.00;;;;;;4754202;30;20453;-82
2023/06/12 03:31:45;;;;;;;0.38;0.35;;;17.60;1.00;;;;;;4769665;30;20047;-82
2023/06/12 03:34:11;;;;;;;0.30;0.30;;;17.60;1.00;;;;;;4770557;30;20099;-82
2023/06/12 03:36:38;;;;;;;1.13;0.95;;;17.60;1.00;;;;;;4787103;30;20573;-82
2023/06/12 03:39:04;;;;;;;0.63;0.40;;;17.50;1.00;;;;;;4756377;30;20058;-82
2023/06/12 03:41:32;;;;;;;0.47;0.30;;;17.40;1.00;;;;;;4757191;29;20059;-82
2023/06/12 03:43:58;;;;;;;0.20;0.20;;;17.40;1.00;;;;;;4805339;29;20402;-82
2023/06/12 03:46:24;;;;;;;0.55;0.50;;;17.30;15.60;;;;;;4788527;29;20043;-82
2023/06/12 03:48:50;;;;;;;0.30;0.30;;;17.20;94.80;;;;;;4789027;29;20057;-82
2023/06/12 03:51:16;;;;;;;0.38;0.20;;;17.20;99.90;;;;;;4784649;29;20057;-82
2023/06/12 03:53:42;;;;;;;0.45;0.45;;;17.20;99.90;;;;;;4788742;29;20144;-81
2023/06/12 03:56:07;;;;;;;0.65;0.50;;;17.20;99.90;;;;;;4792459;29;20108;-82
2023/06/12 03:58:33;;;;;;;0.63;0.47;;;17.20;99.90;;;;;;4792896;29;20502;-82
2023/06/12 04:00:59;;;;;;;0.22;0.22;;;17.10;99.90;;;;;;4810535;29;20057;-82
2023/06/12 04:03:25;;;;;;;0.45;0.43;;;17.10;99.90;;;;;;4810006;29;20075;-82
2023/06/12 04:05:51;;;;;;;0.38;0.30;;;17.00;99.90;;;;;;4795434;29;20073;-82
2023/06/12 04:08:17;;;;;;;0.80;0.80;;;17.00;99.90;;;;;;4810164;29;20056;-82
2023/06/12 04:10:44;;;;;;;0.40;0.40;;;16.70;99.90;;;;;;4810749;29;20078;-82
2023/06/12 04:13:10;;;;;;;0.55;0.50;;;17.00;99.90;;;;;;4808650;29;20062;-82
2023/06/12 04:15:36;;;;;;;0.40;0.40;;;17.00;99.90;;;;;;4809688;29;20141;-82
2023/06/12 04:18:04;;;;;;;0.28;0.28;;;16.90;99.90;;;;;;4810298;29;20058;-82
2023/06/12 04:20:32;;;;;;;0.30;0.30;;;16.90;99.90;;;;;;4786519;29;20062;-82
2023/06/12 04:22:58;;;;;;;0.30;0.30;;;16.90;99.90;;;;;;4777594;29;20054;-82
2023/06/12 04:25:27;;;;;;;0.40;0.40;;;16.90;99.90;;;;;;4813196;29;20046;-82
2023/06/12 04:27:53;;;;;;;0.30;0.30;;;16.90;99.90;;;;;;4810134;29;20042;-82
2023/06/12 04:30:21;;;;;;;0.30;0.30;;;16.90;1.00;;;;;;4794850;29;20050;-82
2023/06/12 04:32:47;;;;;;;0.80;0.40;;;17.00;1.00;;;;;;4795237;29;20323;-82
2023/06/12 04:35:16;;;;;;;;;;;17.00;1.00;;;;;;4775961;29;20047;-82
2023/06/12 04:37:42;;;;;;;0.40;0.40;;;17.00;99.90;;;;;;4790206;29;19984;-82
2023/06/12 04:40:11;;;;;;;0.30;0.30;;;17.00;1.00;;;;;;4790079;29;20074;-82
2023/06/12 04:42:37;;;;;;;0.38;0.38;;;17.00;1.00;;;;;;4807119;29;20184;-82
2023/06/12 04:45:04;;;;;;;;;;;17.10;1.00;;;;;;4790910;29;20054;-82
2023/06/12 04:47:30;;;;;;;0.50;0.50;;;17.10;99.90;;;;;;4790959;29;20284;-82
2023/06/12 04:49:57;;;;;;;0.30;0.30;;;17.10;1.00;;;;;;4790392;29;20054;-82
2023/06/12 04:52:24;;;;;;;0.35;0.35;;;17.20;1.00;;;;;;4790624;29;20065;-82
2023/06/12 04:54:52;;;;;;;0.50;0.50;;;17.30;1.00;;;;;;4796475;29;20054;-82
2023/06/12 04:57:18;;;;;;;0.38;0.38;;;17.30;1.00;;;;;;4809057;29;20070;-82
2023/06/12 04:59:45;;;;;;;0.32;0.20;;;17.50;1.00;;;;;;4824985;29;20061;-82
2023/06/12 05:02:12;;;;;;;0.65;0.65;;;17.50;1.00;;;;;;4807529;29;20058;-82
2023/06/12 05:04:41;;;;;;;0.75;0.40;;;17.70;1.00;;;;;;4825068;29;20058;-82
2023/06/12 05:07:21;;;;;;;0.40;0.40;;;17.80;1.00;;;;;;4809090;29;20046;-82
2023/06/12 05:09:46;;;;;;;0.68;0.68;;;18.00;1.00;;;;;;4807348;29;20055;-82
2023/06/12 05:12:12;;;;;;;0.30;0.30;;;18.40;99.90;;;;;;4794382;29;20413;-82
2023/06/12 05:14:39;;;;;;;0.40;0.40;;;19.10;99.90;;;;;;4824862;29;20107;-82
2023/06/12 05:17:05;;;;;;;0.40;0.40;;;20.00;34.00;;;;;;4809280;29;20058;-82
2023/06/12 05:19:31;;;;;;;0.57;0.40;;;20.90;1.00;;;;;;4773851;29;20069;-82
2023/06/12 05:21:57;;;;;;;0.63;0.52;;;21.60;99.90;;;;;;4806266;29;20401;-81
2023/06/12 05:24:22;;;;;;;0.30;0.30;;;22.20;99.90;;;;;;4774533;29;20100;-82
2023/06/12 05:26:50;;;;;;;0.60;0.60;;;22.70;99.90;;;;;;4790399;29;20051;-82
2023/06/12 05:29:16;;;;;;;0.70;0.38;;;23.00;99.90;;;;;;4774620;29;20055;-82
2023/06/12 05:31:42;;;;;;;0.30;0.30;;;23.30;99.90;;;;;;4806356;29;20483;-82
2023/06/12 05:34:07;;;;;;;0.55;0.55;;;23.70;99.90;;;;;;4790900;29;20061;-82
2023/06/12 05:36:33;;;;;;;0.30;0.30;;;24.00;99.90;;;;;;4775651;29;20137;-81
2023/06/12 05:38:59;;;;;;;0.40;0.40;;;24.20;99.90;;;;;;4787903;29;20051;-82
2023/06/12 05:41:25;;;;;;;0.52;0.52;;;24.50;99.90;;;;;;4777006;29;20103;-80
2023/06/12 05:43:51;;;;;;;0.40;0.30;;;24.70;99.90;;;;;;4798590;29;20107;-80
2023/06/12 05:46:16;;;;;;;0.70;0.70;;;25.00;99.90;;;;;;4788851;29;20090;-86
2023/06/12 05:48:42;;;;;;;0.88;0.45;;;25.30;99.90;;;;;;4797270;29;20059;-86
2023/06/12 05:51:08;;;;;;;0.55;0.55;;;25.40;99.90;;;;;;4779194;29;20512;-85
2023/06/12 05:53:34;;;;;;;;;;;25.50;99.90;;;;;;4793790;29;20383;-85
2023/06/12 05:56:00;;;;;;;2.35;0.85;;;25.50;86.50;;;;;;4808728;29;20384;-86
2023/06/12 05:58:26;;;;;;;0.52;0.52;;;25.50;99.90;;;;;;4793557;29;20058;-88
2023/06/12 06:00:55;;;;;;;;;;;25.50;99.90;;;;;;4791558;29;20055;-86
2023/06/12 06:03:23;;;;;;;0.85;0.73;;;25.60;84.00;;;;;;4776207;29;20400;-86
2023/06/12 06:05:49;;;;;;;0.40;0.40;;;25.80;98.00;;;;;;4793315;29;20141;-86
2023/06/12 06:08:15;;;;;;;0.88;0.40;;;25.90;93.20;;;;;;4801409;29;20118;-87
2023/06/12 06:10:41;;;;;;;;;;;25.90;91.40;;;;;;4805464;29;20451;-87
2023/06/12 06:13:07;;;;;;;0.82;0.82;;;25.90;57.80;;;;;;4820555;29;20295;-87
2023/06/12 06:15:33;;;;;;;0.60;0.60;;;26.10;86.90;;;;;;4793246;29;20043;-90
2023/06/12 06:17:59;;;;;;;;;;;26.20;87.20;;;;;;4775184;29;20053;-87
2023/06/12 06:20:26;;;;;;;0.43;0.43;;;26.50;66.60;;;;;;4790851;29;19979;-89
2023/06/12 06:22:52;;;;;;;0.60;0.60;;;26.70;80.50;;;;;;4775059;29;20086;-88
2023/06/12 06:25:18;;;;;;;;;;;26.70;72.80;;;;;;4793037;29;20525;-87
2023/06/12 06:27:44;;;;;;;1.63;0.65;;;26.80;41.10;;;;;;4799354;29;19925;-89
2023/06/12 06:30:10;;;;;;;0.98;0.68;;;26.80;64.30;;;;;;4806363;29;20117;-91
2023/06/12 06:32:36;;;;;;;0.65;0.65;;;26.70;59.60;;;;;;4780588;29;20490;-88
2023/06/12 06:35:05;;;;;;;0.95;0.88;;;26.50;59.90;;;;;;4763863;29;20047;-91
2023/06/12 06:37:31;;;;;;;0.80;0.80;;;26.40;58.30;;;;;;4776922;29;20047;-93
2023/06/12 06:39:57;;;;;;;0.75;0.60;;;26.40;55.50;;;;;;4808674;29;20046;-89
2023/06/12 06:42:22;;;;;;;0.70;0.70;;;26.20;53.70;;;;;;4771973;29;20089;-88
2023/06/12 06:44:49;;;;;;;0.80;0.75;;;26.10;63.30;;;;;;4771710;29;20079;-89
2023/06/12 06:47:15;;;;;;;2.50;0.95;;;25.90;64.80;;;;;;4754763;29;20410;-88
2023/06/12 06:49:41;;;;;;;1.08;0.82;;;26.10;60.70;;;;;;4796689;29;20046;-87
2023/06/12 06:52:07;;;;;;;0.95;0.90;;;26.00;60.50;;;;;;4791288;29;20110;-89
2023/06/12 06:54:33;;;;;;;0.88;0.88;;;25.90;59.30;;;;;;4760325;29;20490;-86
2023/06/12 06:57:00;;;;;;;0.73;0.73;;;25.50;60.30;;;;;;4789594;29;20050;-85
2023/06/12 06:59:26;;;;;;;0.47;0.47;;;25.40;68.50;;;;;;4792763;29;20050;-86
2023/06/12 07:01:51;;;;;;;0.90;0.90;;;25.40;70.30;;;;;;4771609;29;20065;-86
2023/06/12 07:04:17;;;;;;;0.82;0.77;;;25.40;76.10;;;;;;4788962;29;20074;-86
2023/06/12 07:06:43;;;;;;;0.80;0.63;;;25.40;73.70;;;;;;4774627;29;20125;-88
2023/06/12 07:09:09;;;;;;;;;;;25.20;74.50;;;;;;4778031;29;20055;-87
2023/06/12 07:11:35;;;;;;;0.50;0.50;;;25.50;66.40;;;;;;4776610;29;19931;-87
2023/06/12 07:14:01;;;;;;;0.63;0.63;;;25.60;76.10;;;;;;4777322;29;20050;-87
2023/06/12 07:16:27;;;;;;;1.13;0.90;;;25.70;71.10;;;;;;4775774;29;20081;-87
2023/06/12 07:18:55;;;;;;;0.75;0.73;;;25.80;76.30;;;;;;4777546;29;20055;-86
2023/06/12 07:21:21;;;;;;;0.65;0.65;;;26.10;74.90;;;;;;4792759;29;20107;-85
2023/06/12 07:23:47;;;;;;;;;;;26.20;65.10;;;;;;4773181;29;20110;-86
2023/06/12 07:26:12;;;;;;;0.60;0.60;;;26.30;69.80;;;;;;4790946;29;19933;-87
2023/06/12 07:28:38;;;;;;;;;;;26.50;56.80;;;;;;4775234;29;20048;-86
2023/06/12 07:31:04;;;;;;;0.50;0.50;;;26.60;37.10;;;;;;4772890;29;19990;-86
2023/06/12 07:33:30;;;;;;;0.80;0.80;;;26.60;49.50;;;;;;4793333;29;20058;-87
2023/06/12 07:35:55;;;;;;;;;;;26.70;45.60;;;;;;4762461;29;20050;-87
2023/06/12 07:38:21;;;;;;;0.73;0.73;;;26.40;32.80;;;;;;4795028;29;20501;-86
2023/06/12 07:40:47;;;;;;;;;;;26.20;44.40;;;;;;4776196;29;20057;-87
2023/06/12 07:43:13;;;;;;;0.80;0.80;;;25.90;40.00;;;;;;4776452;29;19925;-87
2023/06/12 07:45:38;;;;;;;;;;;25.40;52.20;;;;;;4776849;29;20077;-86
2023/06/12 07:48:04;;;;;;;0.50;0.50;;;25.80;43.10;;;;;;4780964;29;20386;-87
2023/06/12 07:50:30;;;;;;;;;;;25.90;49.60;;;;;;4767444;29;20054;-87
2023/06/12 07:52:55;;;;;;;0.80;0.80;;;26.00;43.70;;;;;;4776469;29;19987;-87
2023/06/12 07:55:21;;;;;;;;;;;26.10;48.50;;;;;;4793796;29;20054;-88
2023/06/12 07:57:50;;;;;;;1.60;0.82;;;26.20;41.00;;;;;;4774166;29;19947;-88
2023/06/12 08:00:17;;;;;;;1.20;0.80;;;26.20;45.00;;;;;;4776855;29;20565;-85
2023/06/12 08:02:43;;;;;;;1.23;1.13;;;26.20;42.10;;;;;;4791844;29;20051;-85
2023/06/12 08:05:10;;;;;;;0.98;0.98;;;26.20;43.10;;;;;;4791888;29;20121;-85
2023/06/12 08:07:36;;;;;;;0.65;0.65;;;26.10;49.30;;;;;;4782292;29;20038;-85
2023/06/12 08:10:02;;;;;;;1.17;1.05;;;26.10;48.00;;;;;;4764351;29;20051;-85
2023/06/12 08:12:27;;;;;;;0.80;0.80;;;26.00;49.90;;;;;;4766344;29;20409;-84
2023/06/12 08:14:54;;;;;;;4.85;1.13;;;26.10;47.20;;;;;;4792544;29;20054;-86
2023/06/12 08:17:23;;;;;;;0.75;0.75;;;26.20;43.70;;;;;;4787845;29;20063;-85
2023/06/12 08:19:49;;;;;;;0.70;0.70;;;26.10;45.00;;;;;;4779470;29;20469;-85
2023/06/12 08:22:15;;;;;;;0.88;0.88;;;26.10;48.00;;;;;;4764475;29;20138;-85
2023/06/12 08:24:43;;;;;;;0.90;0.60;;;26.10;50.60;;;;;;4760619;29;20057;-85
2023/06/12 08:27:11;;;;;;;1.25;0.80;;;26.30;48.50;;;;;;4781563;29;20405;-85
2023/06/12 08:29:38;;;;;;;0.73;0.73;;;26.30;47.20;;;;;;4776697;29;20063;-84
2023/06/12 08:32:04;;;;;;;0.88;0.88;;;26.40;45.40;;;;;;4781436;29;20058;-85
2023/06/12 08:34:30;;;;;;;0.80;0.80;;;26.40;43.30;;;;;;4791295;29;20054;-85
2023/06/12 08:36:56;;;;;;;0.73;0.73;;;26.30;42.40;;;;;;4761372;29;20046;-89
2023/06/12 08:39:22;;;;;;;0.95;0.93;;;26.40;42.10;;;;;;4757745;29;20042;-91
2023/06/12 08:42:04;;;;;;;0.90;0.82;;;26.50;42.60;;;;;;4781389;29;20061;-87
2023/06/12 08:44:31;;;;;;;1.10;1.00;;;26.60;38.40;;;;;;4790347;29;20062;-87
2023/06/12 08:47:01;;;;;;;0.80;0.73;;;26.40;36.10;;;;;;4795552;29;20046;-87
2023/06/12 08:49:27;;;;;;;0.88;0.70;;;26.40;31.40;;;;;;4792516;29;20497;-87
2023/06/12 08:51:53;;;;;;;0.80;0.80;;;26.40;36.50;;;;;;4809629;29;20133;-87
2023/06/12 08:54:20;;;;;;;0.75;0.52;;;26.50;34.20;;;;;;4799456;29;20121;-87
2023/06/12 08:56:46;;;;;;;1.80;1.00;;;26.40;40.20;;;;;;4790171;29;20477;-88
2023/06/12 08:59:13;;;;;;;1.02;0.90;;;26.50;34.80;;;;;;4776961;29;20497;-87
2023/06/12 09:01:39;;;;;;;1.20;1.05;;;26.40;33.50;;;;;;4780355;29;20467;-88
2023/06/12 09:04:28;;;;;;;0.95;0.60;;;26.40;33.60;;;;;;4765692;29;20104;-88
2023/06/12 09:07:03;;;;;;;0.75;0.73;;;26.60;35.70;;;;;;4746500;29;20467;-89
2023/06/12 09:09:40;;;;;;;1.20;1.10;;;26.70;32.10;;;;;;4775205;29;20058;-89
2023/06/12 09:12:10;;;;;;;0.60;0.60;;;26.90;31.60;;;;;;4775019;29;20062;-87
2023/06/12 09:14:36;;;;;;;0.65;0.65;;;26.90;29.80;;;;;;4795464;29;20046;-88
2023/06/12 09:17:03;;;;;;;0.85;0.77;;;27.00;27.80;;;;;;4777608;29;20055;-88
2023/06/12 09:19:37;;;;;;;0.90;0.90;;;27.10;27.20;;;;;;4789272;29;20096;-89
2023/06/12 09:22:03;;;;;;;0.95;0.70;;;27.20;25.80;;;;;;4789722;29;20137;-86
2023/06/12 09:24:29;;;;;;;0.60;0.60;;;27.30;25.70;;;;;;4791287;29;20046;-87
2023/06/12 09:26:55;;;;;;;1.08;0.93;;;27.50;21.50;;;;;;4779839;29;20372;-86
2023/06/12 09:29:29;;;;;;;0.80;0.80;;;27.60;21.00;;;;;;4774940;29;20203;-86
2023/06/12 09:31:54;;;;;;;0.73;0.73;;;27.60;18.10;;;;;;4778143;29;20129;-87
2023/06/12 09:34:23;;;;;;;1.10;0.95;;;27.60;19.20;;;;;;4776166;29;20220;-87
2023/06/12 09:36:49;;;;;;;1.08;0.98;;;27.60;20.30;;;;;;4773962;29;20108;-86
2023/06/12 09:39:17;;;;;;;0.57;0.57;;;27.50;19.10;;;;;;4774202;29;20054;-87
2023/06/12 09:41:49;;;;;;;2.30;1.30;;;27.50;16.70;;;;;;4759073;29;20169;-87
2023/06/12 09:44:23;;;;;;;1.15;0.85;;;27.60;15.20;;;;;;4809114;29;20046;-84
2023/06/12 09:46:50;;;;;;;0.90;0.90;;;27.70;12.30;;;;;;4784611;29;20508;-86
2023/06/12 09:49:22;;;;;;;0.98;0.82;;;27.80;11.60;;;;;;4771412;29;20058;-86
2023/06/12 09:51:49;;;;;;;0.90;0.90;;;27.90;6.50;;;;;;4781981;29;20498;-86
2023/06/12 09:54:16;;;;;;;2.25;0.95;;;27.90;8.50;;;;;;4777141;29;20490;-86
2023/06/12 09:56:46;;;;;;;0.80;0.80;;;28.10;8.70;;;;;;4792358;29;20112;-86
2023/06/12 09:59:19;;;;;;;1.02;0.90;;;28.20;1.20;;;;;;4777713;29;20072;-86
2023/06/12 10:01:51;;;;;;;1.60;1.13;;;28.10;7.10;;;;;;4826080;29;20050;-86
2023/06/12 10:04:45;;;;;;;1.00;1.00;;;28.10;2.70;;;;;;4778402;29;20055;-87
2023/06/12 10:07:18;;;;;;;1.25;1.15;;;28.20;1.00;;;;;;4795313;29;20051;-91
2023/06/12 10:09:47;;;;;;;1.63;1.20;;;28.20;1.40;;;;;;4789935;29;20047;-86
2023/06/12 10:12:13;;;;;;;1.05;0.90;;;28.30;1.00;;;;;;4778932;29;20055;-87
2023/06/12 10:14:39;;;;;;;1.17;1.08;;;28.30;1.00;;;;;;4777847;29;20047;-87
2023/06/12 10:17:08;;;;;;;1.27;1.17;;;28.30;1.00;;;;;;4771178;29;20091;-87
2023/06/12 10:19:37;;;;;;;1.30;1.17;;;28.40;1.00;;;;;;4780054;29;20055;-87
2023/06/12 10:22:06;;;;;;;1.40;0.90;;;28.50;1.00;;;;;;4789595;29;20082;-88
2023/06/12 10:24:33;;;;;;;1.15;1.15;;;28.50;1.00;;;;;;4772652;29;20057;-88
2023/06/12 10:27:00;;;;;;;1.60;1.08;;;28.60;1.00;;;;;;4776523;29;20047;-87
2023/06/12 10:29:29;;;;;;;1.10;1.00;;;28.50;1.00;;;;;;4771197;29;20403;-88
2023/06/12 10:32:03;;;;;;;0.88;0.88;;;28.50;1.00;;;;;;4782692;29;20046;-88
2023/06/12 10:34:34;;;;;;;1.95;1.10;;;28.40;1.00;;;;;;4799464;29;20522;-87
2023/06/12 10:37:27;;;;;;;2.08;1.20;;;28.40;1.00;;;;;;4774087;29;20486;-88
2023/06/12 10:40:07;;;;;;;1.48;1.20;;;28.50;1.00;;;;;;4774644;29;20077;-87
2023/06/12 10:42:40;;;;;;;1.15;1.10;;;28.60;1.00;;;;;;4774220;29;20056;-88
2023/06/12 10:45:28;;;;;;;1.65;1.23;;;28.80;1.00;;;;;;4779279;29;20471;-88
2023/06/12 10:48:03;;;;;;;1.17;1.15;;;29.00;1.00;;;;;;4789320;29;20467;-87
2023/06/12 10:50:41;;;;;;;1.20;1.10;;;29.10;1.00;;;;;;4789515;29;20349;-86
2023/06/12 10:53:24;;;;;;;1.40;1.30;;;29.20;1.00;;;;;;4799169;29;20077;-85
2023/06/12 10:56:07;;;;;;;1.27;1.10;;;29.20;1.00;;;;;;4781613;29;20054;-86
2023/06/12 10:58:38;;;;;;;0.60;0.60;;;29.30;1.00;;;;;;4775905;29;20506;-86
2023/06/12 11:01:14;;;;;;;1.00;0.90;;;29.40;1.00;;;;;;4789812;29;20125;-89
2023/06/12 11:03:42;;;;;;;1.80;1.42;;;29.50;1.00;;;;;;4799518;29;20043;-89
2023/06/12 11:06:15;;;;;;;1.50;1.40;;;29.40;1.00;;;;;;4790594;29;20059;-89
2023/06/12 11:08:42;;;;;;;1.50;1.40;;;29.20;1.00;;;;;;4771564;29;20097;-89
2023/06/12 11:11:12;;;;;;;1.10;1.00;;;29.30;1.00;;;;;;4789173;29;20458;-90
2023/06/12 11:13:46;;;;;;;1.58;1.30;;;29.40;1.00;;;;;;4801439;29;20065;-90
2023/06/12 11:16:16;;;;;;;1.42;1.33;;;29.40;1.00;;;;;;4792624;29;20106;-87
2023/06/12 11:18:42;;;;;;;2.00;1.48;;;29.50;1.00;;;;;;4774665;29;20502;-88
2023/06/12 11:21:10;;;;;;;1.65;1.52;;;29.60;1.00;;;;;;4774561;29;20051;-88
2023/06/12 11:23:41;;;;;;;1.40;1.30;;;29.50;1.00;;;;;;4786786;29;20055;-89
2023/06/12 11:26:10;;;;;;;1.20;1.10;;;29.60;1.00;;;;;;4757186;30;20090;-89
2023/06/12 11:28:35;;;;;;;1.60;1.30;;;29.70;1.00;;;;;;4797935;29;20125;-89
2023/06/12 11:31:02;;;;;;;1.30;1.17;;;29.80;1.00;;;;;;4777429;29;20207;-89
2023/06/12 11:33:32;;;;;;;1.30;1.20;;;29.90;1.00;;;;;;4803903;29;20051;-89
2023/06/12 11:35:59;;;;;;;1.33;1.23;;;30.00;1.00;;;;;;4792571;29;20050;-88
2023/06/12 11:38:27;;;;;;;1.20;1.10;;;30.00;1.00;;;;;;4788486;29;20057;-90
2023/06/12 11:40:53;;;;;;;1.35;1.10;;;29.90;1.00;;;;;;4762708;29;20047;-90
2023/06/12 11:43:21;;;;;;;1.30;1.20;;;30.00;1.00;;;;;;4754420;29;20043;-89
2023/06/12 11:45:48;;;;;;;1.42;1.33;;;30.10;1.00;;;;;;4826506;29;20413;-89
2023/06/12 11:48:16;;;;;;;1.50;1.38;;;30.20;1.00;;;;;;4773391;29;20143;-89
2023/06/12 11:50:48;;;;;;;1.38;1.27;;;30.30;1.00;;;;;;4773061;29;20394;-91
2023/06/12 11:53:15;;;;;;;1.52;1.42;;;30.10;1.00;;;;;;4772546;29;20119;-93
2023/06/12 11:55:41;;;;;;;1.40;1.10;;;29.90;1.00;;;;;;4774502;29;20585;-90
2023/06/12 11:58:07;;;;;;;1.63;1.17;;;29.50;1.00;;;;;;4789031;29;20059;-91
2023/06/12 12:00:34;;;;;;;1.88;1.45;;;29.40;1.00;;;;;;4772742;29;20380;-93
2023/06/12 12:03:04;;;;;;;1.63;1.52;;;29.30;1.00;;;;;;4787861;29;20465;-93
2023/06/12 12:05:35;;;;;;;2.03;1.40;;;29.10;1.00;;;;;;4784673;29;20055;-92
2023/06/12 12:08:06;;;;;;;1.27;1.17;;;29.00;1.00;;;;;;4776609;29;20082;-93
2023/06/12 12:10:33;;;;;;;1.05;0.95;;;28.90;1.00;;;;;;4778138;29;20073;-93
2023/06/12 12:13:03;;;;;;;1.05;0.95;;;28.80;1.00;;;;;;4789089;29;20177;-92
2023/06/12 12:15:40;;;;;;;1.60;1.48;;;28.70;1.00;;;;;;4826044;29;20050;-90
2023/06/12 12:18:17;;;;;;;1.30;1.20;;;28.60;1.00;;;;;;4773076;29;20051;-91
2023/06/12 12:20:47;;;;;;;1.65;1.55;;;28.70;1.00;;;;;;4808218;29;20401;-91
2023/06/12 12:23:13;;;;;;;1.45;1.35;;;28.70;1.00;;;;;;4792766;29;20104;-89
2023/06/12 12:25:41;;;;;;;1.85;1.48;;;28.70;1.00;;;;;;4775262;29;20054;-90
2023/06/12 12:28:07;;;;;;;1.42;1.10;;;28.70;1.00;;;;;;4795089;29;20119;-90
2023/06/12 12:30:33;;;;;;;1.67;1.45;;;28.70;1.00;;;;;;4775275;29;20072;-89
2023/06/12 12:32:59;;;;;;;1.52;1.40;;;28.90;1.00;;;;;;4790582;29;20375;-90
2023/06/12 12:35:26;;;;;;;1.27;1.20;;;29.10;1.00;;;;;;4781242;29;20121;-89
2023/06/12 12:37:54;;;;;;;1.23;1.13;;;29.10;1.00;;;;;;4778306;29;20112;-89
2023/06/12 12:40:23;;;;;;;1.25;1.10;;;29.10;1.00;;;;;;4791769;29;20054;-90
2023/06/12 12:42:50;;;;;;;2.03;1.52;;;29.10;1.00;;;;;;4794397;29;20082;-89
2023/06/12 12:45:19;;;;;;;1.35;1.25;;;29.20;1.00;;;;;;4774013;29;20594;-90
2023/06/12 12:47:48;;;;;;;1.35;1.20;;;29.40;1.00;;;;;;4769389;29;20053;-90
2023/06/12 12:50:15;;;;;;;2.20;1.20;;;29.70;1.00;;;;;;4797496;29;20059;-90
2023/06/12 12:52:41;;;;;;;1.20;1.10;;;30.00;1.00;;;;;;4776194;29;20702;-92
2023/06/12 12:55:08;;;;;;;1.52;1.42;;;30.20;1.00;;;;;;4797524;29;20050;-91
2023/06/12 12:57:37;;;;;;;1.48;1.38;;;30.10;1.00;;;;;;4808608;29;20062;-88
2023/06/12 13:00:12;;;;;;;1.35;1.15;;;30.10;1.00;;;;;;4777673;29;20100;-91